sensor_id;sensor_type;location;lat;lon;timestamp;P1;durP1;ratioP1;P2;durP2;ratioP2
58597;SDS011;64549;46.910;16.844;2022-10-29T00:02:32;2.80;;;2.60;;
58597;SDS011;64549;46.910;16.844;2022-10-29T00:07:32;3.80;;;3.40;;
58597;SDS011;64549;46.910;16.844;2022-10-29T00:12:33;4.05;;;3.15;;
58597;SDS011;64549;46.910;16.844;2022-10-29T00:17:34;4.63;;;3.60;;
58597;SDS011;64549;46.910;16.844;2022-10-29T00:22:34;5.63;;;4.50;;
58597;SDS011;64549;46.910;16.844;2022-10-29T00:27:35;4.18;;;3.47;;
58597;SDS011;64549;46.910;16.844;2022-10-29T00:32:35;5.63;;;4.18;;
58597;SDS011;64549;46.910;16.844;2022-10-29T00:37:36;5.97;;;3.95;;
58597;SDS011;64549;46.910;16.844;2022-10-29T00:42:40;3.38;;;2.50;;
58597;SDS011;64549;46.910;16.844;2022-10-29T00:47:40;8.80;;;3.13;;
58597;SDS011;64549;46.910;16.844;2022-10-29T00:52:42;4.60;;;3.28;;
58597;SDS011;64549;46.910;16.844;2022-10-29T00:57:48;5.10;;;4.00;;
58597;SDS011;64549;46.910;16.844;2022-10-29T01:02:53;4.55;;;3.00;;
58597;SDS011;64549;46.910;16.844;2022-10-29T01:07:53;3.42;;;3.03;;
58597;SDS011;64549;46.910;16.844;2022-10-29T01:18:26;5.00;;;3.45;;
58597;SDS011;64549;46.910;16.844;2022-10-29T01:34:58;3.38;;;2.97;;
58597;SDS011;64549;46.910;16.844;2022-10-29T01:40:23;3.92;;;2.97;;
58597;SDS011;64549;46.910;16.844;2022-10-29T01:45:32;5.38;;;2.63;;
58597;SDS011;64549;46.910;16.844;2022-10-29T01:50:39;5.60;;;2.25;;
58597;SDS011;64549;46.910;16.844;2022-10-29T01:55:43;4.75;;;1.83;;
58597;SDS011;64549;46.910;16.844;2022-10-29T02:11:24;4.75;;;3.30;;
58597;SDS011;64549;46.910;16.844;2022-10-29T02:16:33;6.35;;;3.25;;
58597;SDS011;64549;46.910;16.844;2022-10-29T02:21:33;2.60;;;2.42;;
58597;SDS011;64549;46.910;16.844;2022-10-29T02:26:34;5.18;;;3.17;;
58597;SDS011;64549;46.910;16.844;2022-10-29T02:31:34;2.88;;;2.67;;
58597;SDS011;64549;46.910;16.844;2022-10-29T02:36:35;4.07;;;2.95;;
58597;SDS011;64549;46.910;16.844;2022-10-29T02:41:35;2.67;;;2.30;;
58597;SDS011;64549;46.910;16.844;2022-10-29T02:46:36;3.53;;;2.95;;
58597;SDS011;64549;46.910;16.844;2022-10-29T02:51:38;3.45;;;2.42;;
58597;SDS011;64549;46.910;16.844;2022-10-29T02:56:39;2.97;;;2.75;;
58597;SDS011;64549;46.910;16.844;2022-10-29T03:01:39;4.47;;;2.50;;
58597;SDS011;64549;46.910;16.844;2022-10-29T03:06:39;4.85;;;1.52;;
58597;SDS011;64549;46.910;16.844;2022-10-29T03:11:40;2.50;;;2.30;;
58597;SDS011;64549;46.910;16.844;2022-10-29T03:16:40;1.48;;;1.38;;
58597;SDS011;64549;46.910;16.844;2022-10-29T03:21:41;2.05;;;1.90;;
58597;SDS011;64549;46.910;16.844;2022-10-29T03:26:41;2.30;;;2.20;;
58597;SDS011;64549;46.910;16.844;2022-10-29T03:31:42;4.63;;;1.73;;
58597;SDS011;64549;46.910;16.844;2022-10-29T03:36:42;2.60;;;1.85;;
58597;SDS011;64549;46.910;16.844;2022-10-29T03:41:42;4.22;;;1.70;;
58597;SDS011;64549;46.910;16.844;2022-10-29T03:46:46;1.73;;;1.30;;
58597;SDS011;64549;46.910;16.844;2022-10-29T03:51:49;1.55;;;1.38;;
58597;SDS011;64549;46.910;16.844;2022-10-29T03:56:50;2.47;;;2.28;;
58597;SDS011;64549;46.910;16.844;2022-10-29T04:01:50;3.95;;;2.38;;
58597;SDS011;64549;46.910;16.844;2022-10-29T04:06:51;2.80;;;2.53;;
58597;SDS011;64549;46.910;16.844;2022-10-29T04:11:51;4.70;;;2.03;;
58597;SDS011;64549;46.910;16.844;2022-10-29T04:16:51;2.65;;;2.42;;
58597;SDS011;64549;46.910;16.844;2022-10-29T04:21:52;2.58;;;2.08;;
58597;SDS011;64549;46.910;16.844;2022-10-29T04:26:52;1.70;;;1.60;;
58597;SDS011;64549;46.910;16.844;2022-10-29T04:31:53;4.07;;;2.25;;
58597;SDS011;64549;46.910;16.844;2022-10-29T04:36:53;4.00;;;2.22;;
58597;SDS011;64549;46.910;16.844;2022-10-29T04:41:54;2.53;;;2.13;;
58597;SDS011;64549;46.910;16.844;2022-10-29T04:46:54;2.63;;;1.33;;
58597;SDS011;64549;46.910;16.844;2022-10-29T04:51:54;1.80;;;1.70;;
58597;SDS011;64549;46.910;16.844;2022-10-29T04:56:55;2.22;;;2.08;;
58597;SDS011;64549;46.910;16.844;2022-10-29T05:01:55;1.33;;;1.23;;
58597;SDS011;64549;46.910;16.844;2022-10-29T05:06:56;1.27;;;1.17;;
58597;SDS011;64549;46.910;16.844;2022-10-29T05:11:56;3.15;;;2.47;;
58597;SDS011;64549;46.910;16.844;2022-10-29T05:16:57;5.63;;;2.50;;
58597;SDS011;64549;46.910;16.844;2022-10-29T05:21:57;1.90;;;1.80;;
58597;SDS011;64549;46.910;16.844;2022-10-29T05:26:58;3.45;;;2.65;;
58597;SDS011;64549;46.910;16.844;2022-10-29T05:31:58;2.30;;;2.20;;
58597;SDS011;64549;46.910;16.844;2022-10-29T05:36:59;4.03;;;2.25;;
58597;SDS011;64549;46.910;16.844;2022-10-29T05:41:59;2.50;;;2.25;;
58597;SDS011;64549;46.910;16.844;2022-10-29T05:46:59;3.38;;;2.30;;
58597;SDS011;64549;46.910;16.844;2022-10-29T05:52:00;2.15;;;1.52;;
58597;SDS011;64549;46.910;16.844;2022-10-29T05:57:00;3.90;;;1.92;;
58597;SDS011;64549;46.910;16.844;2022-10-29T06:02:01;1.45;;;1.35;;
58597;SDS011;64549;46.910;16.844;2022-10-29T06:07:01;2.78;;;2.47;;
58597;SDS011;64549;46.910;16.844;2022-10-29T06:12:02;1.58;;;1.48;;
58597;SDS011;64549;46.910;16.844;2022-10-29T06:17:03;3.03;;;1.50;;
58597;SDS011;64549;46.910;16.844;2022-10-29T06:22:03;1.38;;;1.27;;
58597;SDS011;64549;46.910;16.844;2022-10-29T06:27:04;1.52;;;1.42;;
58597;SDS011;64549;46.910;16.844;2022-10-29T06:32:04;1.92;;;1.67;;
58597;SDS011;64549;46.910;16.844;2022-10-29T06:37:04;2.70;;;1.35;;
58597;SDS011;64549;46.910;16.844;2022-10-29T06:42:05;2.72;;;1.83;;
58597;SDS011;64549;46.910;16.844;2022-10-29T06:47:05;3.50;;;2.00;;
58597;SDS011;64549;46.910;16.844;2022-10-29T06:52:06;2.65;;;2.45;;
58597;SDS011;64549;46.910;16.844;2022-10-29T06:57:06;2.10;;;1.65;;
58597;SDS011;64549;46.910;16.844;2022-10-29T07:02:08;1.50;;;1.40;;
58597;SDS011;64549;46.910;16.844;2022-10-29T07:07:11;1.63;;;1.27;;
58597;SDS011;64549;46.910;16.844;2022-10-29T07:12:12;0.63;;;0.60;;
58597;SDS011;64549;46.910;16.844;2022-10-29T07:17:12;1.48;;;1.38;;
58597;SDS011;64549;46.910;16.844;2022-10-29T07:22:12;2.90;;;1.85;;
58597;SDS011;64549;46.910;16.844;2022-10-29T07:27:13;2.60;;;1.67;;
58597;SDS011;64549;46.910;16.844;2022-10-29T07:32:13;1.15;;;1.10;;
58597;SDS011;64549;46.910;16.844;2022-10-29T07:37:14;1.27;;;1.23;;
58597;SDS011;64549;46.910;16.844;2022-10-29T07:42:14;1.70;;;1.60;;
58597;SDS011;64549;46.910;16.844;2022-10-29T07:47:15;1.60;;;1.50;;
58597;SDS011;64549;46.910;16.844;2022-10-29T07:52:15;1.77;;;1.67;;
58597;SDS011;64549;46.910;16.844;2022-10-29T07:57:16;1.17;;;1.05;;
58597;SDS011;64549;46.910;16.844;2022-10-29T08:02:16;3.20;;;1.25;;
58597;SDS011;64549;46.910;16.844;2022-10-29T08:07:17;1.77;;;1.67;;
58597;SDS011;64549;46.910;16.844;2022-10-29T08:12:17;1.20;;;1.20;;
58597;SDS011;64549;46.910;16.844;2022-10-29T08:17:18;1.38;;;1.27;;
58597;SDS011;64549;46.910;16.844;2022-10-29T08:22:18;1.55;;;1.45;;
58597;SDS011;64549;46.910;16.844;2022-10-29T08:27:19;0.93;;;0.93;;
58597;SDS011;64549;46.910;16.844;2022-10-29T08:32:19;1.88;;;1.33;;
58597;SDS011;64549;46.910;16.844;2022-10-29T08:37:20;1.98;;;1.42;;
58597;SDS011;64549;46.910;16.844;2022-10-29T08:47:24;1.52;;;1.42;;
58597;SDS011;64549;46.910;16.844;2022-10-29T08:52:27;1.40;;;1.10;;
58597;SDS011;64549;46.910;16.844;2022-10-29T08:57:35;1.23;;;1.13;;
58597;SDS011;64549;46.910;16.844;2022-10-29T09:02:40;1.98;;;1.83;;
58597;SDS011;64549;46.910;16.844;2022-10-29T09:07:56;3.10;;;0.93;;
58597;SDS011;64549;46.910;16.844;2022-10-29T09:24:21;3.25;;;2.15;;
58597;SDS011;64549;46.910;16.844;2022-10-29T09:29:45;3.85;;;1.98;;
58597;SDS011;64549;46.910;16.844;2022-10-29T09:35:10;2.55;;;2.35;;
58597;SDS011;64549;46.910;16.844;2022-10-29T09:40:26;1.60;;;1.50;;
58597;SDS011;64549;46.910;16.844;2022-10-29T09:50:52;1.52;;;1.42;;
58597;SDS011;64549;46.910;16.844;2022-10-29T09:55:58;1.00;;;1.00;;
58597;SDS011;64549;46.910;16.844;2022-10-29T10:00:59;3.67;;;1.55;;
58597;SDS011;64549;46.910;16.844;2022-10-29T10:16:25;2.53;;;1.88;;
58597;SDS011;64549;46.910;16.844;2022-10-29T10:21:29;2.25;;;2.05;;
58597;SDS011;64549;46.910;16.844;2022-10-29T10:26:41;2.45;;;2.08;;
58597;SDS011;64549;46.910;16.844;2022-10-29T10:31:43;1.90;;;1.80;;
58597;SDS011;64549;46.910;16.844;2022-10-29T10:36:55;2.83;;;1.50;;
58597;SDS011;64549;46.910;16.844;2022-10-29T10:42:22;3.25;;;1.60;;
58597;SDS011;64549;46.910;16.844;2022-10-29T10:47:27;1.77;;;1.67;;
58597;SDS011;64549;46.910;16.844;2022-10-29T10:52:30;2.10;;;1.88;;
58597;SDS011;64549;46.910;16.844;2022-10-29T10:57:33;1.77;;;1.67;;
58597;SDS011;64549;46.910;16.844;2022-10-29T11:02:50;1.75;;;1.65;;
58597;SDS011;64549;46.910;16.844;2022-10-29T11:13:16;1.58;;;1.35;;
58597;SDS011;64549;46.910;16.844;2022-10-29T11:18:27;2.58;;;2.15;;
58597;SDS011;64549;46.910;16.844;2022-10-29T11:28:41;2.22;;;1.77;;
58597;SDS011;64549;46.910;16.844;2022-10-29T11:39:18;1.77;;;1.67;;
58597;SDS011;64549;46.910;16.844;2022-10-29T11:44:27;1.50;;;1.20;;
58597;SDS011;64549;46.910;16.844;2022-10-29T12:11:16;1.75;;;1.65;;
58597;SDS011;64549;46.910;16.844;2022-10-29T12:15:54;1.17;;;1.08;;
58597;SDS011;64549;46.910;16.844;2022-10-29T12:21:08;1.02;;;1.02;;
58597;SDS011;64549;46.910;16.844;2022-10-29T12:31:35;2.25;;;0.85;;
58597;SDS011;64549;46.910;16.844;2022-10-29T12:42:33;1.40;;;1.30;;
58597;SDS011;64549;46.910;16.844;2022-10-29T12:47:45;2.22;;;1.73;;
58597;SDS011;64549;46.910;16.844;2022-10-29T12:52:59;1.50;;;1.40;;
58597;SDS011;64549;46.910;16.844;2022-10-29T13:08:55;2.42;;;1.83;;
58597;SDS011;64549;46.910;16.844;2022-10-29T13:13:56;2.78;;;2.15;;
58597;SDS011;64549;46.910;16.844;2022-10-29T13:19:06;1.52;;;1.15;;
58597;SDS011;64549;46.910;16.844;2022-10-29T13:24:15;3.85;;;2.20;;
58597;SDS011;64549;46.910;16.844;2022-10-29T13:29:38;1.85;;;1.75;;
58597;SDS011;64549;46.910;16.844;2022-10-29T13:34:54;2.40;;;2.15;;
58597;SDS011;64549;46.910;16.844;2022-10-29T13:45:21;1.92;;;1.75;;
58597;SDS011;64549;46.910;16.844;2022-10-29T13:50:22;1.55;;;1.45;;
58597;SDS011;64549;46.910;16.844;2022-10-29T13:55:22;2.85;;;1.58;;
58597;SDS011;64549;46.910;16.844;2022-10-29T14:00:25;3.50;;;2.10;;
58597;SDS011;64549;46.910;16.844;2022-10-29T14:05:30;2.22;;;2.03;;
58597;SDS011;64549;46.910;16.844;2022-10-29T14:16:00;5.97;;;3.67;;
58597;SDS011;64549;46.910;16.844;2022-10-29T14:21:11;3.20;;;2.90;;
58597;SDS011;64549;46.910;16.844;2022-10-29T14:26:17;2.50;;;2.30;;
58597;SDS011;64549;46.910;16.844;2022-10-29T14:41:42;3.97;;;2.30;;
58597;SDS011;64549;46.910;16.844;2022-10-29T14:47:05;3.35;;;3.00;;
58597;SDS011;64549;46.910;16.844;2022-10-29T14:57:32;3.10;;;2.80;;
58597;SDS011;64549;46.910;16.844;2022-10-29T15:02:38;3.73;;;3.43;;
58597;SDS011;64549;46.910;16.844;2022-10-29T15:07:41;5.90;;;2.88;;
58597;SDS011;64549;46.910;16.844;2022-10-29T15:12:42;2.72;;;2.45;;
58597;SDS011;64549;46.910;16.844;2022-10-29T15:22:51;2.00;;;1.88;;
58597;SDS011;64549;46.910;16.844;2022-10-29T15:27:56;2.63;;;1.83;;
58597;SDS011;64549;46.910;16.844;2022-10-29T15:32:58;4.28;;;2.15;;
58597;SDS011;64549;46.910;16.844;2022-10-29T15:37:59;2.83;;;2.40;;
58597;SDS011;64549;46.910;16.844;2022-10-29T15:43:24;1.73;;;1.63;;
58597;SDS011;64549;46.910;16.844;2022-10-29T15:48:34;1.95;;;1.85;;
58597;SDS011;64549;46.910;16.844;2022-10-29T15:53:36;2.60;;;2.40;;
58597;SDS011;64549;46.910;16.844;2022-10-29T15:58:36;2.22;;;2.05;;
58597;SDS011;64549;46.910;16.844;2022-10-29T16:03:38;2.05;;;1.88;;
58597;SDS011;64549;46.910;16.844;2022-10-29T16:08:51;1.80;;;1.70;;
58597;SDS011;64549;46.910;16.844;2022-10-29T16:13:54;2.40;;;2.22;;
58597;SDS011;64549;46.910;16.844;2022-10-29T16:18:55;1.58;;;1.45;;
58597;SDS011;64549;46.910;16.844;2022-10-29T16:23:55;1.17;;;1.05;;
58597;SDS011;64549;46.910;16.844;2022-10-29T16:28:56;3.80;;;1.75;;
58597;SDS011;64549;46.910;16.844;2022-10-29T16:33:57;1.85;;;1.08;;
58597;SDS011;64549;46.910;16.844;2022-10-29T16:38:59;2.65;;;2.45;;
58597;SDS011;64549;46.910;16.844;2022-10-29T16:43:59;2.28;;;2.15;;
58597;SDS011;64549;46.910;16.844;2022-10-29T16:49:00;1.90;;;1.63;;
58597;SDS011;64549;46.910;16.844;2022-10-29T16:54:00;2.10;;;1.73;;
58597;SDS011;64549;46.910;16.844;2022-10-29T16:59:01;5.75;;;2.03;;
58597;SDS011;64549;46.910;16.844;2022-10-29T17:04:01;2.38;;;1.65;;
58597;SDS011;64549;46.910;16.844;2022-10-29T17:09:03;1.45;;;1.35;;
58597;SDS011;64549;46.910;16.844;2022-10-29T17:14:05;1.60;;;1.50;;
58597;SDS011;64549;46.910;16.844;2022-10-29T17:19:05;2.75;;;1.75;;
58597;SDS011;64549;46.910;16.844;2022-10-29T17:24:06;1.55;;;1.45;;
58597;SDS011;64549;46.910;16.844;2022-10-29T17:29:07;2.22;;;2.03;;
58597;SDS011;64549;46.910;16.844;2022-10-29T17:34:07;1.27;;;1.23;;
58597;SDS011;64549;46.910;16.844;2022-10-29T17:39:08;1.65;;;1.55;;
58597;SDS011;64549;46.910;16.844;2022-10-29T17:44:11;1.50;;;1.40;;
58597;SDS011;64549;46.910;16.844;2022-10-29T17:49:12;2.50;;;1.65;;
58597;SDS011;64549;46.910;16.844;2022-10-29T17:54:21;0.85;;;0.68;;
58597;SDS011;64549;46.910;16.844;2022-10-29T17:59:21;1.77;;;1.67;;
58597;SDS011;64549;46.910;16.844;2022-10-29T18:04:25;2.65;;;1.90;;
58597;SDS011;64549;46.910;16.844;2022-10-29T18:09:28;1.17;;;1.08;;
58597;SDS011;64549;46.910;16.844;2022-10-29T18:14:28;2.03;;;1.67;;
58597;SDS011;64549;46.910;16.844;2022-10-29T18:19:29;3.75;;;2.50;;
58597;SDS011;64549;46.910;16.844;2022-10-29T18:24:29;1.90;;;1.80;;
58597;SDS011;64549;46.910;16.844;2022-10-29T18:29:30;1.60;;;1.50;;
58597;SDS011;64549;46.910;16.844;2022-10-29T18:34:31;1.60;;;1.48;;
58597;SDS011;64549;46.910;16.844;2022-10-29T18:39:33;1.13;;;1.08;;
58597;SDS011;64549;46.910;16.844;2022-10-29T18:44:33;1.30;;;1.20;;
58597;SDS011;64549;46.910;16.844;2022-10-29T18:49:34;2.38;;;1.92;;
58597;SDS011;64549;46.910;16.844;2022-10-29T18:54:35;2.30;;;1.50;;
58597;SDS011;64549;46.910;16.844;2022-10-29T18:59:38;3.15;;;1.70;;
58597;SDS011;64549;46.910;16.844;2022-10-29T19:04:40;2.08;;;1.83;;
58597;SDS011;64549;46.910;16.844;2022-10-29T19:09:40;3.00;;;2.00;;
58597;SDS011;64549;46.910;16.844;2022-10-29T19:14:41;4.43;;;2.58;;
58597;SDS011;64549;46.910;16.844;2022-10-29T19:19:41;1.70;;;1.60;;
58597;SDS011;64549;46.910;16.844;2022-10-29T19:24:41;2.45;;;2.25;;
58597;SDS011;64549;46.910;16.844;2022-10-29T19:29:42;1.77;;;1.25;;
58597;SDS011;64549;46.910;16.844;2022-10-29T19:34:42;2.10;;;1.90;;
58597;SDS011;64549;46.910;16.844;2022-10-29T19:39:44;4.28;;;2.53;;
58597;SDS011;64549;46.910;16.844;2022-10-29T19:44:44;2.10;;;2.00;;
58597;SDS011;64549;46.910;16.844;2022-10-29T19:49:44;3.67;;;2.75;;
58597;SDS011;64549;46.910;16.844;2022-10-29T19:54:45;2.63;;;2.42;;
58597;SDS011;64549;46.910;16.844;2022-10-29T19:59:45;2.35;;;2.15;;
58597;SDS011;64549;46.910;16.844;2022-10-29T20:04:46;3.42;;;2.53;;
58597;SDS011;64549;46.910;16.844;2022-10-29T20:09:46;4.47;;;2.92;;
58597;SDS011;64549;46.910;16.844;2022-10-29T20:14:47;2.42;;;2.10;;
58597;SDS011;64549;46.910;16.844;2022-10-29T20:19:47;3.78;;;1.92;;
58597;SDS011;64549;46.910;16.844;2022-10-29T20:24:47;2.75;;;2.13;;
58597;SDS011;64549;46.910;16.844;2022-10-29T20:29:48;3.17;;;2.45;;
58597;SDS011;64549;46.910;16.844;2022-10-29T20:34:49;8.57;;;2.75;;
58597;SDS011;64549;46.910;16.844;2022-10-29T20:39:52;2.03;;;1.80;;
58597;SDS011;64549;46.910;16.844;2022-10-29T20:44:52;5.05;;;2.40;;
58597;SDS011;64549;46.910;16.844;2022-10-29T20:49:53;6.88;;;2.60;;
58597;SDS011;64549;46.910;16.844;2022-10-29T20:54:53;3.03;;;2.75;;
58597;SDS011;64549;46.910;16.844;2022-10-29T20:59:54;3.55;;;2.30;;
58597;SDS011;64549;46.910;16.844;2022-10-29T21:04:54;2.75;;;2.55;;
58597;SDS011;64549;46.910;16.844;2022-10-29T21:09:54;5.22;;;3.80;;
58597;SDS011;64549;46.910;16.844;2022-10-29T21:14:55;3.65;;;3.35;;
58597;SDS011;64549;46.910;16.844;2022-10-29T21:19:55;3.58;;;2.92;;
58597;SDS011;64549;46.910;16.844;2022-10-29T21:24:56;3.03;;;2.70;;
58597;SDS011;64549;46.910;16.844;2022-10-29T21:29:56;4.28;;;2.13;;
58597;SDS011;64549;46.910;16.844;2022-10-29T21:34:57;3.65;;;2.22;;
58597;SDS011;64549;46.910;16.844;2022-10-29T21:39:57;5.68;;;3.10;;
58597;SDS011;64549;46.910;16.844;2022-10-29T21:44:57;2.78;;;2.58;;
58597;SDS011;64549;46.910;16.844;2022-10-29T21:49:58;3.25;;;2.92;;
58597;SDS011;64549;46.910;16.844;2022-10-29T21:54:58;3.38;;;3.08;;
58597;SDS011;64549;46.910;16.844;2022-10-29T21:59:59;4.88;;;2.83;;
58597;SDS011;64549;46.910;16.844;2022-10-29T22:04:59;4.15;;;2.72;;
58597;SDS011;64549;46.910;16.844;2022-10-29T22:10:00;4.03;;;3.17;;
58597;SDS011;64549;46.910;16.844;2022-10-29T22:15:01;2.72;;;2.53;;
58597;SDS011;64549;46.910;16.844;2022-10-29T22:20:03;3.35;;;2.60;;
58597;SDS011;64549;46.910;16.844;2022-10-29T22:25:04;3.22;;;2.95;;
58597;SDS011;64549;46.910;16.844;2022-10-29T22:30:05;10.77;;;4.10;;
58597;SDS011;64549;46.910;16.844;2022-10-29T22:35:06;3.42;;;3.10;;
58597;SDS011;64549;46.910;16.844;2022-10-29T22:40:07;3.10;;;2.75;;
58597;SDS011;64549;46.910;16.844;2022-10-29T22:45:08;2.58;;;2.25;;
58597;SDS011;64549;46.910;16.844;2022-10-29T22:50:09;2.78;;;2.58;;
58597;SDS011;64549;46.910;16.844;2022-10-29T22:55:09;2.00;;;1.85;;
58597;SDS011;64549;46.910;16.844;2022-10-29T23:00:10;2.53;;;2.33;;
58597;SDS011;64549;46.910;16.844;2022-10-29T23:05:11;3.70;;;2.38;;
58597;SDS011;64549;46.910;16.844;2022-10-29T23:10:11;2.35;;;2.13;;
58597;SDS011;64549;46.910;16.844;2022-10-29T23:15:11;2.03;;;1.85;;
58597;SDS011;64549;46.910;16.844;2022-10-29T23:20:12;4.18;;;2.80;;
58597;SDS011;64549;46.910;16.844;2022-10-29T23:25:13;2.58;;;1.65;;
58597;SDS011;64549;46.910;16.844;2022-10-29T23:30:13;3.22;;;2.65;;
58597;SDS011;64549;46.910;16.844;2022-10-29T23:35:14;2.30;;;2.08;;
58597;SDS011;64549;46.910;16.844;2022-10-29T23:40:14;3.75;;;2.40;;
58597;SDS011;64549;46.910;16.844;2022-10-29T23:45:15;6.32;;;1.65;;
58597;SDS011;64549;46.910;16.844;2022-10-29T23:50:15;5.10;;;2.50;;
58597;SDS011;64549;46.910;16.844;2022-10-29T23:55:19;2.28;;;2.10;;
